sensor_id;sensor_type;location;lat;lon;timestamp;temperature;humidity
16838;DHT22;19510;54.486;9.046;2023-07-20T00:01:40;14.50;99.90
16838;DHT22;19510;54.486;9.046;2023-07-20T00:04:11;14.50;99.90
16838;DHT22;19510;54.486;9.046;2023-07-20T00:06:37;14.50;99.90
16838;DHT22;19510;54.486;9.046;2023-07-20T00:09:09;14.40;99.90
16838;DHT22;19510;54.486;9.046;2023-07-20T00:11:37;14.40;99.90
16838;DHT22;19510;54.486;9.046;2023-07-20T00:14:05;14.30;99.90
16838;DHT22;19510;54.486;9.046;2023-07-20T00:16:31;14.30;99.90
16838;DHT22;19510;54.486;9.046;2023-07-20T00:19:00;14.30;99.90
16838;DHT22;19510;54.486;9.046;2023-07-20T00:21:25;14.30;99.90
16838;DHT22;19510;54.486;9.046;2023-07-20T00:23:51;14.20;99.90
16838;DHT22;19510;54.486;9.046;2023-07-20T00:26:17;14.30;99.90
16838;DHT22;19510;54.486;9.046;2023-07-20T00:28:44;14.20;99.90
16838;DHT22;19510;54.486;9.046;2023-07-20T00:31:10;14.30;99.90
16838;DHT22;19510;54.486;9.046;2023-07-20T00:33:36;14.30;99.90
16838;DHT22;19510;54.486;9.046;2023-07-20T00:36:01;14.30;99.90
16838;DHT22;19510;54.486;9.046;2023-07-20T00:38:27;14.40;99.90
16838;DHT22;19510;54.486;9.046;2023-07-20T00:40:53;14.40;99.90
16838;DHT22;19510;54.486;9.046;2023-07-20T00:43:21;14.50;99.90
16838;DHT22;19510;54.486;9.046;2023-07-20T00:45:51;14.60;99.90
16838;DHT22;19510;54.486;9.046;2023-07-20T00:48:17;14.60;99.90
16838;DHT22;19510;54.486;9.046;2023-07-20T00:50:46;14.60;99.90
16838;DHT22;19510;54.486;9.046;2023-07-20T00:53:14;14.70;99.90
16838;DHT22;19510;54.486;9.046;2023-07-20T00:55:42;14.80;99.90
16838;DHT22;19510;54.486;9.046;2023-07-20T00:58:08;14.80;99.90
16838;DHT22;19510;54.486;9.046;2023-07-20T01:00:34;14.80;99.90
16838;DHT22;19510;54.486;9.046;2023-07-20T01:02:59;14.80;99.90
16838;DHT22;19510;54.486;9.046;2023-07-20T01:05:42;14.90;99.90
16838;DHT22;19510;54.486;9.046;2023-07-20T01:09:00;14.90;99.90
16838;DHT22;19510;54.486;9.046;2023-07-20T01:14:17;14.90;99.90
16838;DHT22;19510;54.486;9.046;2023-07-20T01:16:42;14.90;99.90
16838;DHT22;19510;54.486;9.046;2023-07-20T01:19:11;14.90;99.90
16838;DHT22;19510;54.486;9.046;2023-07-20T01:21:55;15.00;99.90
16838;DHT22;19510;54.486;9.046;2023-07-20T01:24:51;15.00;99.90
16838;DHT22;19510;54.486;9.046;2023-07-20T01:27:50;15.00;99.90
16838;DHT22;19510;54.486;9.046;2023-07-20T01:33:08;15.10;99.90
16838;DHT22;19510;54.486;9.046;2023-07-20T01:35:34;15.10;99.90
16838;DHT22;19510;54.486;9.046;2023-07-20T01:38:01;15.10;99.90
16838;DHT22;19510;54.486;9.046;2023-07-20T01:40:28;15.10;99.90
16838;DHT22;19510;54.486;9.046;2023-07-20T01:42:56;15.10;99.90
16838;DHT22;19510;54.486;9.046;2023-07-20T01:45:21;15.10;99.90
16838;DHT22;19510;54.486;9.046;2023-07-20T01:47:49;15.10;99.90
16838;DHT22;19510;54.486;9.046;2023-07-20T01:50:15;15.10;99.90
16838;DHT22;19510;54.486;9.046;2023-07-20T01:52:41;15.10;99.90
16838;DHT22;19510;54.486;9.046;2023-07-20T01:55:07;15.20;99.90
16838;DHT22;19510;54.486;9.046;2023-07-20T01:57:33;15.20;99.90
16838;DHT22;19510;54.486;9.046;2023-07-20T01:59:58;15.20;99.90
16838;DHT22;19510;54.486;9.046;2023-07-20T02:02:26;15.10;99.90
16838;DHT22;19510;54.486;9.046;2023-07-20T02:04:54;15.00;99.90
16838;DHT22;19510;54.486;9.046;2023-07-20T02:07:20;14.90;99.90
16838;DHT22;19510;54.486;9.046;2023-07-20T02:09:46;14.80;99.90
16838;DHT22;19510;54.486;9.046;2023-07-20T02:12:11;14.70;99.90
16838;DHT22;19510;54.486;9.046;2023-07-20T02:14:37;14.70;99.90
16838;DHT22;19510;54.486;9.046;2023-07-20T02:17:03;14.70;99.90
16838;DHT22;19510;54.486;9.046;2023-07-20T02:19:31;14.80;99.90
16838;DHT22;19510;54.486;9.046;2023-07-20T02:21:59;14.70;99.90
16838;DHT22;19510;54.486;9.046;2023-07-20T02:24:24;14.70;99.90
16838;DHT22;19510;54.486;9.046;2023-07-20T02:26:51;14.70;99.90
16838;DHT22;19510;54.486;9.046;2023-07-20T02:29:19;14.70;99.90
16838;DHT22;19510;54.486;9.046;2023-07-20T02:31:44;14.60;99.90
16838;DHT22;19510;54.486;9.046;2023-07-20T02:34:10;14.60;99.90
16838;DHT22;19510;54.486;9.046;2023-07-20T02:36:35;14.50;99.90
16838;DHT22;19510;54.486;9.046;2023-07-20T02:39:03;14.50;99.90
16838;DHT22;19510;54.486;9.046;2023-07-20T02:41:33;14.50;99.90
16838;DHT22;19510;54.486;9.046;2023-07-20T02:43:59;14.50;99.90
16838;DHT22;19510;54.486;9.046;2023-07-20T02:46:25;14.60;99.90
16838;DHT22;19510;54.486;9.046;2023-07-20T02:48:51;14.50;99.90
16838;DHT22;19510;54.486;9.046;2023-07-20T02:51:17;14.50;99.90
16838;DHT22;19510;54.486;9.046;2023-07-20T02:53:42;14.50;99.90
16838;DHT22;19510;54.486;9.046;2023-07-20T02:56:08;14.50;99.90
16838;DHT22;19510;54.486;9.046;2023-07-20T02:58:41;14.50;99.90
16838;DHT22;19510;54.486;9.046;2023-07-20T03:01:09;14.50;99.90
16838;DHT22;19510;54.486;9.046;2023-07-20T03:03:40;14.60;99.90
16838;DHT22;19510;54.486;9.046;2023-07-20T03:06:06;14.50;99.90
16838;DHT22;19510;54.486;9.046;2023-07-20T03:08:35;14.50;99.90
16838;DHT22;19510;54.486;9.046;2023-07-20T03:11:01;14.50;99.90
16838;DHT22;19510;54.486;9.046;2023-07-20T03:13:27;14.60;99.90
16838;DHT22;19510;54.486;9.046;2023-07-20T03:15:55;14.50;99.90
16838;DHT22;19510;54.486;9.046;2023-07-20T03:18:21;14.50;99.90
16838;DHT22;19510;54.486;9.046;2023-07-20T03:20:46;14.50;99.90
16838;DHT22;19510;54.486;9.046;2023-07-20T03:23:14;14.60;99.90
16838;DHT22;19510;54.486;9.046;2023-07-20T03:25:43;14.60;99.90
16838;DHT22;19510;54.486;9.046;2023-07-20T03:28:08;14.60;99.90
16838;DHT22;19510;54.486;9.046;2023-07-20T03:30:41;14.60;99.90
16838;DHT22;19510;54.486;9.046;2023-07-20T03:33:06;14.60;99.90
16838;DHT22;19510;54.486;9.046;2023-07-20T03:35:34;14.70;99.90
16838;DHT22;19510;54.486;9.046;2023-07-20T03:38:00;14.70;99.90
16838;DHT22;19510;54.486;9.046;2023-07-20T03:40:26;14.70;99.90
16838;DHT22;19510;54.486;9.046;2023-07-20T03:42:51;14.70;99.90
16838;DHT22;19510;54.486;9.046;2023-07-20T03:45:17;14.70;99.90
16838;DHT22;19510;54.486;9.046;2023-07-20T03:47:42;14.60;99.90
16838;DHT22;19510;54.486;9.046;2023-07-20T03:50:10;14.70;99.90
16838;DHT22;19510;54.486;9.046;2023-07-20T03:52:36;14.70;99.90
16838;DHT22;19510;54.486;9.046;2023-07-20T03:55:02;14.70;99.90
16838;DHT22;19510;54.486;9.046;2023-07-20T03:57:27;14.80;99.90
16838;DHT22;19510;54.486;9.046;2023-07-20T03:59:53;14.80;99.90
16838;DHT22;19510;54.486;9.046;2023-07-20T04:02:21;14.80;99.90
16838;DHT22;19510;54.486;9.046;2023-07-20T04:04:46;14.80;99.90
16838;DHT22;19510;54.486;9.046;2023-07-20T04:07:12;14.90;99.90
16838;DHT22;19510;54.486;9.046;2023-07-20T04:09:40;15.00;99.90
16838;DHT22;19510;54.486;9.046;2023-07-20T04:12:06;15.00;99.90
16838;DHT22;19510;54.486;9.046;2023-07-20T04:14:32;15.00;99.90
16838;DHT22;19510;54.486;9.046;2023-07-20T04:16:57;15.10;99.90
16838;DHT22;19510;54.486;9.046;2023-07-20T04:19:25;15.10;99.90
16838;DHT22;19510;54.486;9.046;2023-07-20T04:21:51;15.10;99.90
16838;DHT22;19510;54.486;9.046;2023-07-20T04:24:19;15.10;99.90
16838;DHT22;19510;54.486;9.046;2023-07-20T04:26:44;15.10;99.90
16838;DHT22;19510;54.486;9.046;2023-07-20T04:29:12;15.20;99.90
16838;DHT22;19510;54.486;9.046;2023-07-20T04:31:41;15.20;99.90
16838;DHT22;19510;54.486;9.046;2023-07-20T04:34:07;15.20;99.90
16838;DHT22;19510;54.486;9.046;2023-07-20T04:36:32;15.20;99.90
16838;DHT22;19510;54.486;9.046;2023-07-20T04:38:58;15.20;99.90
16838;DHT22;19510;54.486;9.046;2023-07-20T04:41:23;15.20;99.90
16838;DHT22;19510;54.486;9.046;2023-07-20T04:43:50;15.20;99.90
16838;DHT22;19510;54.486;9.046;2023-07-20T04:46:16;15.20;99.90
16838;DHT22;19510;54.486;9.046;2023-07-20T04:48:43;15.30;99.90
16838;DHT22;19510;54.486;9.046;2023-07-20T04:51:09;15.30;99.90
16838;DHT22;19510;54.486;9.046;2023-07-20T04:53:35;15.40;99.90
16838;DHT22;19510;54.486;9.046;2023-07-20T04:56:01;15.40;99.90
16838;DHT22;19510;54.486;9.046;2023-07-20T04:58:27;15.40;99.90
16838;DHT22;19510;54.486;9.046;2023-07-20T05:00:52;15.50;99.90
16838;DHT22;19510;54.486;9.046;2023-07-20T05:03:18;15.50;99.90
16838;DHT22;19510;54.486;9.046;2023-07-20T05:05:44;15.50;99.90
16838;DHT22;19510;54.486;9.046;2023-07-20T05:08:12;15.50;99.90
16838;DHT22;19510;54.486;9.046;2023-07-20T05:10:41;15.50;99.90
16838;DHT22;19510;54.486;9.046;2023-07-20T05:13:07;15.40;99.90
16838;DHT22;19510;54.486;9.046;2023-07-20T05:15:33;15.50;99.90
16838;DHT22;19510;54.486;9.046;2023-07-20T05:18:01;15.50;99.90
16838;DHT22;19510;54.486;9.046;2023-07-20T05:20:27;15.60;99.90
16838;DHT22;19510;54.486;9.046;2023-07-20T05:22:53;15.60;99.90
16838;DHT22;19510;54.486;9.046;2023-07-20T05:25:18;15.70;99.90
16838;DHT22;19510;54.486;9.046;2023-07-20T05:27:44;15.80;99.90
16838;DHT22;19510;54.486;9.046;2023-07-20T05:30:11;15.80;99.90
16838;DHT22;19510;54.486;9.046;2023-07-20T05:32:41;15.90;99.90
16838;DHT22;19510;54.486;9.046;2023-07-20T05:35:10;15.90;99.90
16838;DHT22;19510;54.486;9.046;2023-07-20T05:37:37;16.00;99.90
16838;DHT22;19510;54.486;9.046;2023-07-20T05:40:04;16.00;99.90
16838;DHT22;19510;54.486;9.046;2023-07-20T05:42:33;16.00;99.90
16838;DHT22;19510;54.486;9.046;2023-07-20T05:44:59;16.10;99.90
16838;DHT22;19510;54.486;9.046;2023-07-20T05:47:24;16.10;99.90
16838;DHT22;19510;54.486;9.046;2023-07-20T05:49:50;16.00;99.90
16838;DHT22;19510;54.486;9.046;2023-07-20T05:52:16;16.00;99.90
16838;DHT22;19510;54.486;9.046;2023-07-20T05:54:41;16.00;99.90
16838;DHT22;19510;54.486;9.046;2023-07-20T05:57:10;16.10;99.90
16838;DHT22;19510;54.486;9.046;2023-07-20T05:59:36;16.10;99.90
16838;DHT22;19510;54.486;9.046;2023-07-20T06:02:03;16.20;99.90
16838;DHT22;19510;54.486;9.046;2023-07-20T06:04:29;16.20;99.90
16838;DHT22;19510;54.486;9.046;2023-07-20T06:06:58;16.30;99.90
16838;DHT22;19510;54.486;9.046;2023-07-20T06:09:27;16.30;99.90
16838;DHT22;19510;54.486;9.046;2023-07-20T06:11:53;16.30;99.90
16838;DHT22;19510;54.486;9.046;2023-07-20T06:14:19;16.30;99.90
16838;DHT22;19510;54.486;9.046;2023-07-20T06:16:44;16.30;99.90
16838;DHT22;19510;54.486;9.046;2023-07-20T06:19:10;16.30;99.90
16838;DHT22;19510;54.486;9.046;2023-07-20T06:21:39;16.30;99.90
16838;DHT22;19510;54.486;9.046;2023-07-20T06:24:05;16.40;99.90
16838;DHT22;19510;54.486;9.046;2023-07-20T06:26:31;16.50;99.90
16838;DHT22;19510;54.486;9.046;2023-07-20T06:29:03;16.40;99.90
16838;DHT22;19510;54.486;9.046;2023-07-20T06:31:29;16.40;99.90
16838;DHT22;19510;54.486;9.046;2023-07-20T06:33:54;16.40;99.90
16838;DHT22;19510;54.486;9.046;2023-07-20T06:36:20;16.40;99.90
16838;DHT22;19510;54.486;9.046;2023-07-20T06:38:46;16.40;99.90
16838;DHT22;19510;54.486;9.046;2023-07-20T06:41:12;16.50;99.90
16838;DHT22;19510;54.486;9.046;2023-07-20T06:43:38;16.60;99.90
16838;DHT22;19510;54.486;9.046;2023-07-20T06:46:03;16.60;99.90
16838;DHT22;19510;54.486;9.046;2023-07-20T06:48:29;16.70;99.90
16838;DHT22;19510;54.486;9.046;2023-07-20T06:50:55;16.70;99.90
16838;DHT22;19510;54.486;9.046;2023-07-20T06:53:21;16.70;99.90
16838;DHT22;19510;54.486;9.046;2023-07-20T06:55:47;16.70;99.90
16838;DHT22;19510;54.486;9.046;2023-07-20T06:58:16;16.60;99.90
16838;DHT22;19510;54.486;9.046;2023-07-20T07:00:41;16.50;99.90
16838;DHT22;19510;54.486;9.046;2023-07-20T07:03:08;16.40;99.90
16838;DHT22;19510;54.486;9.046;2023-07-20T07:05:37;16.30;99.90
16838;DHT22;19510;54.486;9.046;2023-07-20T07:08:04;16.30;99.90
16838;DHT22;19510;54.486;9.046;2023-07-20T07:10:30;16.20;99.90
16838;DHT22;19510;54.486;9.046;2023-07-20T07:12:55;16.10;99.90
16838;DHT22;19510;54.486;9.046;2023-07-20T07:15:21;16.10;99.90
16838;DHT22;19510;54.486;9.046;2023-07-20T07:17:47;16.10;99.90
16838;DHT22;19510;54.486;9.046;2023-07-20T07:20:13;16.30;99.90
16838;DHT22;19510;54.486;9.046;2023-07-20T07:22:39;16.50;99.90
16838;DHT22;19510;54.486;9.046;2023-07-20T07:25:05;16.60;99.90
16838;DHT22;19510;54.486;9.046;2023-07-20T07:27:31;16.60;99.90
16838;DHT22;19510;54.486;9.046;2023-07-20T07:29:56;16.60;99.90
16838;DHT22;19510;54.486;9.046;2023-07-20T07:32:23;16.70;99.90
16838;DHT22;19510;54.486;9.046;2023-07-20T07:34:49;16.60;99.90
16838;DHT22;19510;54.486;9.046;2023-07-20T07:37:15;16.50;99.90
16838;DHT22;19510;54.486;9.046;2023-07-20T07:39:41;16.40;99.90
16838;DHT22;19510;54.486;9.046;2023-07-20T07:42:07;16.40;99.90
16838;DHT22;19510;54.486;9.046;2023-07-20T07:44:33;16.50;99.90
16838;DHT22;19510;54.486;9.046;2023-07-20T07:46:58;16.70;99.90
16838;DHT22;19510;54.486;9.046;2023-07-20T07:49:24;16.80;99.90
16838;DHT22;19510;54.486;9.046;2023-07-20T07:51:50;16.70;99.90
16838;DHT22;19510;54.486;9.046;2023-07-20T07:54:15;16.70;99.90
16838;DHT22;19510;54.486;9.046;2023-07-20T07:56:41;16.60;99.90
16838;DHT22;19510;54.486;9.046;2023-07-20T07:59:07;16.60;99.90
16838;DHT22;19510;54.486;9.046;2023-07-20T08:01:33;16.70;99.90
16838;DHT22;19510;54.486;9.046;2023-07-20T08:03:59;16.90;99.90
16838;DHT22;19510;54.486;9.046;2023-07-20T08:06:24;17.10;99.90
16838;DHT22;19510;54.486;9.046;2023-07-20T08:08:51;17.10;99.90
16838;DHT22;19510;54.486;9.046;2023-07-20T08:11:16;17.10;99.90
16838;DHT22;19510;54.486;9.046;2023-07-20T08:13:43;17.20;99.90
16838;DHT22;19510;54.486;9.046;2023-07-20T08:16:09;17.10;99.90
16838;DHT22;19510;54.486;9.046;2023-07-20T08:18:35;17.00;99.90
16838;DHT22;19510;54.486;9.046;2023-07-20T08:21:00;16.90;99.90
16838;DHT22;19510;54.486;9.046;2023-07-20T08:23:26;16.70;99.90
16838;DHT22;19510;54.486;9.046;2023-07-20T08:25:53;16.40;99.90
16838;DHT22;19510;54.486;9.046;2023-07-20T08:28:21;16.20;99.90
16838;DHT22;19510;54.486;9.046;2023-07-20T08:30:48;16.20;99.90
16838;DHT22;19510;54.486;9.046;2023-07-20T08:33:15;16.20;99.90
16838;DHT22;19510;54.486;9.046;2023-07-20T08:35:41;16.40;99.90
16838;DHT22;19510;54.486;9.046;2023-07-20T08:38:07;16.50;99.90
16838;DHT22;19510;54.486;9.046;2023-07-20T08:40:34;16.60;99.90
16838;DHT22;19510;54.486;9.046;2023-07-20T08:43:04;16.70;99.90
16838;DHT22;19510;54.486;9.046;2023-07-20T08:45:33;16.80;99.90
16838;DHT22;19510;54.486;9.046;2023-07-20T08:48:00;16.90;99.90
16838;DHT22;19510;54.486;9.046;2023-07-20T08:50:30;17.20;99.90
16838;DHT22;19510;54.486;9.046;2023-07-20T08:52:57;17.40;99.90
16838;DHT22;19510;54.486;9.046;2023-07-20T08:55:28;17.60;99.90
16838;DHT22;19510;54.486;9.046;2023-07-20T08:57:58;17.70;99.90
16838;DHT22;19510;54.486;9.046;2023-07-20T09:00:25;17.60;99.90
16838;DHT22;19510;54.486;9.046;2023-07-20T09:02:53;17.50;99.90
16838;DHT22;19510;54.486;9.046;2023-07-20T09:05:23;17.50;99.90
16838;DHT22;19510;54.486;9.046;2023-07-20T09:07:51;17.40;99.90
16838;DHT22;19510;54.486;9.046;2023-07-20T09:10:23;17.30;99.90
16838;DHT22;19510;54.486;9.046;2023-07-20T09:12:49;17.30;99.90
16838;DHT22;19510;54.486;9.046;2023-07-20T09:15:15;17.40;99.90
16838;DHT22;19510;54.486;9.046;2023-07-20T09:17:46;17.40;99.90
16838;DHT22;19510;54.486;9.046;2023-07-20T09:20:15;17.30;99.90
16838;DHT22;19510;54.486;9.046;2023-07-20T09:22:42;17.00;99.90
16838;DHT22;19510;54.486;9.046;2023-07-20T09:25:15;17.00;99.90
16838;DHT22;19510;54.486;9.046;2023-07-20T09:27:45;16.90;99.90
16838;DHT22;19510;54.486;9.046;2023-07-20T09:30:11;16.70;99.90
16838;DHT22;19510;54.486;9.046;2023-07-20T09:32:47;16.70;99.90
16838;DHT22;19510;54.486;9.046;2023-07-20T09:35:17;16.60;99.90
16838;DHT22;19510;54.486;9.046;2023-07-20T09:40:17;16.60;99.90
16838;DHT22;19510;54.486;9.046;2023-07-20T09:42:43;16.80;99.90
16838;DHT22;19510;54.486;9.046;2023-07-20T09:45:10;16.80;99.90
16838;DHT22;19510;54.486;9.046;2023-07-20T09:47:37;16.90;99.90
16838;DHT22;19510;54.486;9.046;2023-07-20T09:50:04;17.10;99.90
16838;DHT22;19510;54.486;9.046;2023-07-20T09:52:30;17.30;99.90
16838;DHT22;19510;54.486;9.046;2023-07-20T09:54:57;17.50;99.90
16838;DHT22;19510;54.486;9.046;2023-07-20T09:57:24;17.70;99.90
16838;DHT22;19510;54.486;9.046;2023-07-20T09:59:50;17.90;99.90
16838;DHT22;19510;54.486;9.046;2023-07-20T10:02:33;17.60;99.90
16838;DHT22;19510;54.486;9.046;2023-07-20T10:05:02;17.50;99.90
16838;DHT22;19510;54.486;9.046;2023-07-20T10:07:30;17.40;99.90
16838;DHT22;19510;54.486;9.046;2023-07-20T10:09:56;17.30;99.90
16838;DHT22;19510;54.486;9.046;2023-07-20T10:12:25;17.30;99.90
16838;DHT22;19510;54.486;9.046;2023-07-20T10:15:02;17.30;99.90
16838;DHT22;19510;54.486;9.046;2023-07-20T10:17:30;17.30;99.90
16838;DHT22;19510;54.486;9.046;2023-07-20T10:19:57;17.50;99.90
16838;DHT22;19510;54.486;9.046;2023-07-20T10:22:26;17.70;99.90
16838;DHT22;19510;54.486;9.046;2023-07-20T10:24:53;17.80;99.90
16838;DHT22;19510;54.486;9.046;2023-07-20T10:27:23;17.70;99.90
16838;DHT22;19510;54.486;9.046;2023-07-20T10:29:50;17.80;99.90
16838;DHT22;19510;54.486;9.046;2023-07-20T10:32:17;18.00;99.90
16838;DHT22;19510;54.486;9.046;2023-07-20T10:34:42;18.10;99.90
16838;DHT22;19510;54.486;9.046;2023-07-20T10:37:08;18.40;99.90
16838;DHT22;19510;54.486;9.046;2023-07-20T10:39:34;18.40;99.90
16838;DHT22;19510;54.486;9.046;2023-07-20T10:42:01;18.50;99.90
16838;DHT22;19510;54.486;9.046;2023-07-20T10:44:28;18.50;99.90
16838;DHT22;19510;54.486;9.046;2023-07-20T10:47:03;18.50;99.90
16838;DHT22;19510;54.486;9.046;2023-07-20T10:49:34;18.50;99.90
16838;DHT22;19510;54.486;9.046;2023-07-20T10:52:04;18.70;99.90
16838;DHT22;19510;54.486;9.046;2023-07-20T10:56:57;18.70;99.90
16838;DHT22;19510;54.486;9.046;2023-07-20T11:01:49;18.50;99.90
16838;DHT22;19510;54.486;9.046;2023-07-20T11:04:16;18.40;99.90
16838;DHT22;19510;54.486;9.046;2023-07-20T11:06:44;18.00;99.90
16838;DHT22;19510;54.486;9.046;2023-07-20T11:09:12;17.70;99.90
16838;DHT22;19510;54.486;9.046;2023-07-20T11:11:44;17.60;99.90
16838;DHT22;19510;54.486;9.046;2023-07-20T11:14:20;17.50;99.90
16838;DHT22;19510;54.486;9.046;2023-07-20T11:16:48;17.70;99.90
16838;DHT22;19510;54.486;9.046;2023-07-20T11:21:45;17.90;99.90
16838;DHT22;19510;54.486;9.046;2023-07-20T11:24:11;18.10;99.90
16838;DHT22;19510;54.486;9.046;2023-07-20T11:29:12;18.40;99.90
16838;DHT22;19510;54.486;9.046;2023-07-20T11:31:40;18.60;99.90
16838;DHT22;19510;54.486;9.046;2023-07-20T11:34:11;18.70;99.90
16838;DHT22;19510;54.486;9.046;2023-07-20T11:36:46;18.80;99.90
16838;DHT22;19510;54.486;9.046;2023-07-20T11:39:14;19.10;99.90
16838;DHT22;19510;54.486;9.046;2023-07-20T11:41:46;19.30;99.90
16838;DHT22;19510;54.486;9.046;2023-07-20T11:44:12;19.40;99.90
16838;DHT22;19510;54.486;9.046;2023-07-20T11:46:41;19.30;99.90
16838;DHT22;19510;54.486;9.046;2023-07-20T11:49:07;19.40;99.90
16838;DHT22;19510;54.486;9.046;2023-07-20T11:51:34;19.50;99.90
16838;DHT22;19510;54.486;9.046;2023-07-20T11:54:01;19.40;99.90
16838;DHT22;19510;54.486;9.046;2023-07-20T11:56:27;19.10;99.90
16838;DHT22;19510;54.486;9.046;2023-07-20T11:59:00;18.90;99.90
16838;DHT22;19510;54.486;9.046;2023-07-20T12:01:29;18.60;99.90
16838;DHT22;19510;54.486;9.046;2023-07-20T12:04:03;18.50;99.90
16838;DHT22;19510;54.486;9.046;2023-07-20T12:06:32;18.40;99.90
16838;DHT22;19510;54.486;9.046;2023-07-20T12:08:59;18.60;99.90
16838;DHT22;19510;54.486;9.046;2023-07-20T12:11:35;18.70;99.90
16838;DHT22;19510;54.486;9.046;2023-07-20T12:14:06;18.90;99.90
16838;DHT22;19510;54.486;9.046;2023-07-20T12:16:33;18.80;99.90
16838;DHT22;19510;54.486;9.046;2023-07-20T12:19:10;18.70;99.90
16838;DHT22;19510;54.486;9.046;2023-07-20T12:21:38;18.50;99.90
16838;DHT22;19510;54.486;9.046;2023-07-20T12:24:04;18.40;99.90
16838;DHT22;19510;54.486;9.046;2023-07-20T12:26:32;18.50;99.90
16838;DHT22;19510;54.486;9.046;2023-07-20T12:28:58;18.40;99.90
16838;DHT22;19510;54.486;9.046;2023-07-20T12:31:24;18.30;99.90
16838;DHT22;19510;54.486;9.046;2023-07-20T12:33:51;18.40;99.90
16838;DHT22;19510;54.486;9.046;2023-07-20T12:36:17;18.50;99.90
16838;DHT22;19510;54.486;9.046;2023-07-20T12:38:43;18.90;99.90
16838;DHT22;19510;54.486;9.046;2023-07-20T12:41:10;19.10;99.90
16838;DHT22;19510;54.486;9.046;2023-07-20T12:43:43;19.00;99.90
16838;DHT22;19510;54.486;9.046;2023-07-20T12:46:10;19.40;99.90
16838;DHT22;19510;54.486;9.046;2023-07-20T12:48:37;19.80;99.90
16838;DHT22;19510;54.486;9.046;2023-07-20T12:51:03;20.20;99.90
16838;DHT22;19510;54.486;9.046;2023-07-20T12:53:30;20.30;99.90
16838;DHT22;19510;54.486;9.046;2023-07-20T12:55:56;20.30;99.90
16838;DHT22;19510;54.486;9.046;2023-07-20T12:58:22;20.20;99.90
16838;DHT22;19510;54.486;9.046;2023-07-20T13:00:50;19.90;99.90
16838;DHT22;19510;54.486;9.046;2023-07-20T13:03:16;19.80;99.90
16838;DHT22;19510;54.486;9.046;2023-07-20T13:05:44;19.80;99.90
16838;DHT22;19510;54.486;9.046;2023-07-20T13:08:09;19.70;99.90
16838;DHT22;19510;54.486;9.046;2023-07-20T13:10:36;19.40;99.90
16838;DHT22;19510;54.486;9.046;2023-07-20T13:13:01;19.10;99.90
16838;DHT22;19510;54.486;9.046;2023-07-20T13:15:41;18.90;99.90
16838;DHT22;19510;54.486;9.046;2023-07-20T13:18:07;19.10;99.90
16838;DHT22;19510;54.486;9.046;2023-07-20T13:20:33;18.90;99.90
16838;DHT22;19510;54.486;9.046;2023-07-20T13:22:58;18.90;99.90
16838;DHT22;19510;54.486;9.046;2023-07-20T13:25:25;19.00;99.90
16838;DHT22;19510;54.486;9.046;2023-07-20T13:27:51;19.30;99.90
16838;DHT22;19510;54.486;9.046;2023-07-20T13:30:16;19.40;99.90
16838;DHT22;19510;54.486;9.046;2023-07-20T13:32:43;19.40;99.90
16838;DHT22;19510;54.486;9.046;2023-07-20T13:35:10;19.60;99.90
16838;DHT22;19510;54.486;9.046;2023-07-20T13:37:36;19.80;99.90
16838;DHT22;19510;54.486;9.046;2023-07-20T13:40:01;20.30;99.90
16838;DHT22;19510;54.486;9.046;2023-07-20T13:42:29;20.70;99.90
16838;DHT22;19510;54.486;9.046;2023-07-20T13:44:55;20.80;99.90
16838;DHT22;19510;54.486;9.046;2023-07-20T13:47:21;21.20;99.90
16838;DHT22;19510;54.486;9.046;2023-07-20T13:49:46;21.20;99.90
16838;DHT22;19510;54.486;9.046;2023-07-20T13:52:12;20.70;99.90
16838;DHT22;19510;54.486;9.046;2023-07-20T13:54:38;20.30;99.90
16838;DHT22;19510;54.486;9.046;2023-07-20T13:57:04;20.00;99.90
16838;DHT22;19510;54.486;9.046;2023-07-20T13:59:30;19.80;99.90
16838;DHT22;19510;54.486;9.046;2023-07-20T14:01:56;19.70;99.90
16838;DHT22;19510;54.486;9.046;2023-07-20T14:04:21;19.80;99.90
16838;DHT22;19510;54.486;9.046;2023-07-20T14:06:47;20.10;99.90
16838;DHT22;19510;54.486;9.046;2023-07-20T14:09:13;20.00;99.90
16838;DHT22;19510;54.486;9.046;2023-07-20T14:11:38;19.80;99.90
16838;DHT22;19510;54.486;9.046;2023-07-20T14:14:04;19.70;99.90
16838;DHT22;19510;54.486;9.046;2023-07-20T14:16:30;19.40;99.90
16838;DHT22;19510;54.486;9.046;2023-07-20T14:18:58;19.40;99.90
16838;DHT22;19510;54.486;9.046;2023-07-20T14:21:23;19.50;99.90
16838;DHT22;19510;54.486;9.046;2023-07-20T14:23:52;19.80;99.90
16838;DHT22;19510;54.486;9.046;2023-07-20T14:26:20;20.20;99.90
16838;DHT22;19510;54.486;9.046;2023-07-20T14:28:49;20.60;99.90
16838;DHT22;19510;54.486;9.046;2023-07-20T14:31:14;21.00;99.90
16838;DHT22;19510;54.486;9.046;2023-07-20T14:33:40;21.20;99.90
16838;DHT22;19510;54.486;9.046;2023-07-20T14:36:06;21.10;99.90
16838;DHT22;19510;54.486;9.046;2023-07-20T14:38:33;20.90;99.90
16838;DHT22;19510;54.486;9.046;2023-07-20T14:41:00;21.00;99.90
16838;DHT22;19510;54.486;9.046;2023-07-20T14:43:25;21.40;99.90
16838;DHT22;19510;54.486;9.046;2023-07-20T14:45:51;21.30;99.90
16838;DHT22;19510;54.486;9.046;2023-07-20T14:48:17;20.90;99.90
16838;DHT22;19510;54.486;9.046;2023-07-20T14:50:43;20.80;99.90
16838;DHT22;19510;54.486;9.046;2023-07-20T14:53:12;20.70;99.90
16838;DHT22;19510;54.486;9.046;2023-07-20T14:55:38;20.40;99.90
16838;DHT22;19510;54.486;9.046;2023-07-20T14:58:04;20.10;99.90
16838;DHT22;19510;54.486;9.046;2023-07-20T15:00:29;20.10;99.90
16838;DHT22;19510;54.486;9.046;2023-07-20T15:02:56;20.20;99.90
16838;DHT22;19510;54.486;9.046;2023-07-20T15:05:22;20.40;99.90
16838;DHT22;19510;54.486;9.046;2023-07-20T15:07:49;20.90;99.90
16838;DHT22;19510;54.486;9.046;2023-07-20T15:10:16;21.30;99.90
16838;DHT22;19510;54.486;9.046;2023-07-20T15:12:42;21.50;99.90
16838;DHT22;19510;54.486;9.046;2023-07-20T15:15:09;21.50;99.90
16838;DHT22;19510;54.486;9.046;2023-07-20T15:17:35;21.60;99.90
16838;DHT22;19510;54.486;9.046;2023-07-20T15:20:03;21.70;99.90
16838;DHT22;19510;54.486;9.046;2023-07-20T15:22:35;21.70;99.90
16838;DHT22;19510;54.486;9.046;2023-07-20T15:25:02;21.30;99.90
16838;DHT22;19510;54.486;9.046;2023-07-20T15:27:32;21.00;99.90
16838;DHT22;19510;54.486;9.046;2023-07-20T15:29:58;21.00;99.90
16838;DHT22;19510;54.486;9.046;2023-07-20T15:32:24;21.00;99.90
16838;DHT22;19510;54.486;9.046;2023-07-20T15:34:50;20.80;99.90
16838;DHT22;19510;54.486;9.046;2023-07-20T15:37:15;20.50;99.90
16838;DHT22;19510;54.486;9.046;2023-07-20T15:39:41;20.50;99.90
16838;DHT22;19510;54.486;9.046;2023-07-20T15:42:07;20.30;99.90
16838;DHT22;19510;54.486;9.046;2023-07-20T15:44:33;20.40;99.90
16838;DHT22;19510;54.486;9.046;2023-07-20T15:46:59;20.50;99.90
16838;DHT22;19510;54.486;9.046;2023-07-20T15:49:24;20.50;99.90